createdAt,value
2023-04-01T00:12:31.945Z,82.6
2023-04-01T00:32:32.156Z,82.0
2023-04-01T00:52:32.139Z,82.7
2023-04-01T01:12:31.949Z,82.7
2023-04-01T01:32:32.178Z,82.3
2023-04-01T01:52:32.008Z,82.2
2023-04-01T02:12:31.951Z,81.7
2023-04-01T02:32:32.016Z,82.9
2023-04-01T02:52:31.979Z,82.5
2023-04-01T03:12:31.866Z,82.2
2023-04-01T03:32:31.983Z,82.4
2023-04-01T03:52:31.996Z,82.6
2023-04-01T04:12:31.957Z,83.1
2023-04-01T04:32:32.039Z,83.2
2023-04-01T04:52:32.018Z,83.3
2023-04-01T05:12:31.888Z,83.4
2023-04-01T05:32:31.815Z,82.3
2023-04-01T05:52:31.916Z,81.8
2023-04-01T06:12:31.798Z,80.6
2023-04-01T06:32:31.949Z,80.3
2023-04-01T06:52:31.973Z,77.1
2023-04-01T07:12:31.932Z,77.8
2023-04-01T07:32:31.864Z,79.9
2023-04-01T07:52:31.952Z,78.9
2023-04-01T08:12:31.747Z,77.8
2023-04-01T08:32:31.781Z,88.6
2023-04-01T08:52:31.748Z,89.9
2023-04-01T09:12:31.733Z,90.0
2023-04-01T09:32:31.853Z,89.5
2023-04-01T09:52:31.788Z,86.2
2023-04-01T10:12:31.857Z,76.4
2023-04-01T10:32:31.927Z,75.1
2023-04-01T10:52:31.867Z,79.8
2023-04-01T11:12:31.707Z,89.8
2023-04-01T11:32:31.609Z,91.6
2023-04-01T11:52:31.613Z,92.0
2023-04-01T12:12:31.586Z,92.4
2023-04-01T12:32:31.580Z,93.3
2023-04-01T12:52:31.589Z,93.8
2023-04-01T13:12:31.592Z,94.1
2023-04-01T13:32:31.600Z,94.3
2023-04-01T13:52:31.613Z,94.3
2023-04-01T14:12:31.668Z,94.3
2023-04-01T14:32:31.527Z,94.4
2023-04-01T14:52:31.521Z,94.9
2023-04-01T15:12:31.521Z,91.9
2023-04-01T15:32:31.519Z,88.0
2023-04-01T15:52:31.733Z,85.8
2023-04-01T16:12:31.707Z,80.7
2023-04-01T16:32:31.673Z,78.4
2023-04-01T16:52:31.686Z,78.9
2023-04-01T17:12:31.758Z,78.9
2023-04-01T17:32:31.624Z,76.3
2023-04-01T17:52:31.638Z,78.0
2023-04-01T18:12:31.651Z,77.5
2023-04-01T18:32:31.632Z,77.4
2023-04-01T18:52:31.577Z,77.9
2023-04-01T19:12:31.767Z,80.0
2023-04-01T19:32:31.538Z,79.9
2023-04-01T19:52:31.479Z,79.9
2023-04-01T20:12:31.468Z,81.4
2023-04-01T20:32:31.391Z,82.0
2023-04-01T20:52:31.587Z,81.9
2023-04-01T21:12:31.583Z,82.1
2023-04-01T21:32:31.587Z,82.1
2023-04-01T21:52:31.472Z,81.0
2023-04-01T22:12:31.335Z,81.9
2023-04-01T22:32:31.318Z,81.8
2023-04-01T22:52:31.329Z,82.3
2023-04-01T23:12:31.436Z,82.6
2023-04-01T23:32:31.467Z,82.8
2023-04-01T23:52:31.513Z,82.7
